Time;durP1;ratioP1;P1;durP2;ratioP2;P2;SDS_P1;SDS_P2;PMS_P1;PMS_P2;Temp;Humidity;BMP_temperature;BMP_pressure;BME280_temperature;BME280_humidity;BME280_pressure;Samples;Min_cycle;Max_cycle;Signal;HPM_P1;HPM_P2
2022/08/12 00:44:39;;;;;;;7.45;1.90;;;;;;;27.75;33.20;98457.03;5092486;28;20036;-49
2022/08/12 00:47:06;;;;;;;4.80;1.90;;;;;;;27.54;33.26;98451.50;5091078;28;20081;-49
2022/08/12 00:49:33;;;;;;;9.57;2.97;;;;;;;27.64;33.64;98453.06;5092607;28;20017;-48
2022/08/12 00:52:05;;;;;;;8.80;2.53;;;;;;;28.07;33.40;98457.59;5092497;28;20025;-49
2022/08/12 00:54:49;;;;;;;6.00;2.00;;;;;;;28.42;32.99;98444.03;5092479;28;20016;-49
2022/08/12 00:57:27;;;;;;;7.25;1.80;;;;;;;28.53;31.99;98452.56;5091109;28;20513;-49
2022/08/12 01:00:00;;;;;;;4.53;1.90;;;;;;;28.41;32.64;98454.03;5092463;28;20067;-49
2022/08/12 01:02:33;;;;;;;2.90;1.70;;;;;;;28.15;32.71;98447.91;5092431;28;20028;-49
2022/08/12 01:13:18;;;;;;;2.67;1.70;;;;;;;27.58;33.87;98459.75;5092508;28;20035;-49
2022/08/12 01:15:46;;;;;;;3.92;2.28;;;;;;;27.59;34.13;98458.66;5092315;28;20381;-49
2022/08/12 01:18:14;;;;;;;5.45;2.60;;;;;;;27.69;34.64;98453.69;5092130;28;20390;-49
2022/08/12 01:20:46;;;;;;;4.05;1.92;;;;;;;27.84;34.50;98457.00;5092145;28;20020;-49
2022/08/12 01:23:39;;;;;;;3.90;2.28;;;;;;;27.53;35.72;98460.69;5092003;28;20040;-49
2022/08/12 01:26:09;;;;;;;3.55;2.25;;;;;;;27.32;35.90;98448.97;5092421;28;20114;-49
2022/08/12 01:28:35;;;;;;;5.00;1.92;;;;;;;27.35;35.74;98446.44;5090835;28;20108;-49
2022/08/12 01:31:04;;;;;;;4.90;2.20;;;;;;;27.34;35.58;98454.81;5090696;28;20494;-49
2022/08/12 01:33:38;;;;;;;7.40;2.10;;;;;;;27.29;35.46;98450.41;5091984;28;20111;-49
2022/08/12 01:36:08;;;;;;;9.88;2.58;;;;;;;27.30;35.70;98455.44;5091886;28;20085;-50
2022/08/12 01:38:35;;;;;;;11.63;2.45;;;;;;;27.53;35.28;98447.22;5091910;28;20024;-48
2022/08/12 01:41:02;;;;;;;6.63;2.70;;;;;;;27.61;35.09;98449.13;5091797;28;20036;-47
2022/08/12 01:43:30;;;;;;;10.82;2.47;;;;;;;27.92;35.20;98452.75;5090563;28;20031;-48
2022/08/12 01:46:08;;;;;;;5.95;1.98;;;;;;;28.06;34.25;98454.13;5090522;28;20040;-48
2022/08/12 01:49:01;;;;;;;3.85;2.00;;;;;;;27.90;34.59;98450.38;5090531;28;20115;-47
2022/08/12 01:51:41;;;;;;;22.70;3.17;;;;;;;27.54;35.96;98445.31;5091783;28;20031;-48
2022/08/12 01:54:16;;;;;;;5.93;2.35;;;;;;;27.50;35.84;98445.16;5091674;28;20108;-47
2022/08/12 01:56:54;;;;;;;4.70;2.38;;;;;;;27.21;36.27;98453.84;5092820;28;20042;-47
2022/08/12 01:59:46;;;;;;;2.78;1.98;;;;;;;26.96;36.24;98450.78;5094830;28;20042;-47
2022/08/12 02:02:21;;;;;;;6.22;2.47;;;;;;;26.86;36.32;98443.00;5095784;28;20028;-47
2022/08/12 02:11:27;;;;;;;6.25;2.30;;;;;;;27.10;35.82;98454.16;5095898;28;20043;-47
2022/08/12 02:14:23;;;;;;;9.35;2.63;;;;;;;27.20;36.42;98461.13;5095458;28;20028;-47
2022/08/12 02:17:27;;;;;;;5.47;2.60;;;;;;;27.32;35.58;98470.53;5094243;28;20034;-47
2022/08/12 02:20:11;;;;;;;7.03;2.55;;;;;;;27.33;35.69;98472.91;5016285;28;20046;-46
2022/08/12 02:22:42;;;;;;;7.53;2.35;;;;;;;27.34;35.89;98458.31;5016396;28;20071;-48
2022/08/12 02:25:28;;;;;;;10.05;2.72;;;;;;;27.31;36.23;98464.34;5032727;28;20128;-48
2022/08/12 02:27:55;;;;;;;2.63;1.70;;;;;;;27.45;35.86;98454.19;5016362;28;20060;-48
2022/08/12 02:30:30;;;;;;;6.07;2.45;;;;;;;27.17;36.03;98460.97;5032747;28;20054;-47
2022/08/12 02:33:00;;;;;;;4.38;2.20;;;;;;;26.90;36.34;98458.25;5016232;28;20033;-47
2022/08/12 02:35:29;;;;;;;5.07;2.33;;;;;;;26.59;37.43;98455.59;5016038;28;20403;-48
2022/08/12 02:37:58;;;;;;;7.45;2.78;;;;;;;26.57;37.31;98454.31;5032722;28;20033;-47
2022/08/12 02:40:26;;;;;;;7.30;2.35;;;;;;;26.48;37.35;98455.06;5032651;28;20052;-48
2022/08/12 02:42:57;;;;;;;100.38;40.10;;;;;;;26.22;37.93;98454.16;5016002;28;20584;-47
2022/08/12 02:45:36;;;;;;;15.57;5.95;;;;;;;26.15;38.25;98464.56;5032542;28;20072;-48
2022/08/12 02:48:06;;;;;;;17.10;3.88;;;;;;;26.10;38.25;98455.53;5032595;28;20060;-47
2022/08/12 02:50:51;;;;;;;9.23;3.15;;;;;;;26.22;38.39;98454.97;5032363;28;20042;-47
2022/08/12 02:53:17;;;;;;;10.32;3.50;;;;;;;26.31;37.65;98455.00;5015858;28;20116;-48
2022/08/12 02:55:44;;;;;;;7.43;2.47;;;;;;;26.32;37.76;98445.84;5034234;28;20497;-47
2022/08/12 02:58:11;;;;;;;3.47;1.70;;;;;;;26.40;37.21;98437.00;5094869;28;20565;-48
2022/08/12 03:00:38;;;;;;;5.95;2.42;;;;;;;26.34;37.14;98438.25;5076618;28;20028;-48
2022/08/12 03:03:09;;;;;;;20.90;3.05;;;;;;;26.19;37.58;98438.63;5094694;28;20442;-48
2022/08/12 03:05:48;;;;;;;11.07;2.40;;;;;;;26.22;37.36;98435.31;5094581;28;20032;-47
2022/08/12 03:08:18;;;;;;;12.65;2.85;;;;;;;26.21;37.90;98429.16;5092368;28;20509;-47
2022/08/12 03:10:46;;;;;;;10.40;2.33;;;;;;;26.39;37.04;98430.03;5093237;28;20081;-47
2022/08/12 03:13:16;;;;;;;11.68;2.92;;;;;;;26.62;37.32;98433.47;5093252;28;20020;-48
2022/08/12 03:15:43;;;;;;;12.32;2.83;;;;;;;26.89;36.64;98429.72;5094299;28;20028;-48
2022/08/12 03:18:22;;;;;;;4.75;2.13;;;;;;;27.11;35.90;98436.09;5094410;28;20069;-49
2022/08/12 03:20:49;;;;;;;6.10;1.83;;;;;;;27.07;35.57;98435.91;5094353;28;20028;-49
2022/08/12 03:23:15;;;;;;;8.23;2.55;;;;;;;26.79;36.61;98440.00;5092660;28;20573;-49
2022/08/12 03:25:42;;;;;;;7.15;3.00;;;;;;;26.65;36.98;98434.72;5092909;28;20028;-49
2022/08/12 03:28:49;;;;;;;13.18;3.03;;;;;;;26.62;36.64;98429.97;5094200;28;20097;-49
2022/08/12 03:31:05;;;;;;;4.15;2.20;;;;;;;26.41;36.47;98435.88;5093933;28;20040;-49
2022/08/12 03:33:36;;;;;;;3.13;2.22;;;;;;;26.33;36.21;98433.16;5092752;28;20165;-48
2022/08/12 03:36:07;;;;;;;5.93;2.25;;;;;;;26.10;36.96;98439.41;5092593;28;20035;-49
2022/08/12 03:38:37;;;;;;;10.77;2.55;;;;;;;25.93;37.48;98435.81;5093956;28;20397;-49
2022/08/12 03:41:34;;;;;;;8.18;2.20;;;;;;;25.87;37.54;98445.88;5094068;28;20031;-49
2022/08/12 04:00:46;;;;;;;8.15;2.45;;;;;;;24.63;40.36;98458.50;5093605;28;20039;-49
2022/08/12 04:05:56;;;;;;;7.67;2.70;;;;;;;24.69;40.24;98453.84;5093715;28;20101;-50
2022/08/12 04:08:25;;;;;;;4.45;2.00;;;;;;;24.54;40.36;98452.25;5093364;28;20709;-50
2022/08/12 04:13:39;;;;;;;6.00;2.38;;;;;;;24.09;41.20;98454.66;5092504;28;20035;-50
2022/08/12 04:16:09;;;;;;;6.50;2.67;;;;;;;23.99;41.50;98455.63;5093333;28;20158;-50
2022/08/12 04:18:37;;;;;;;5.32;2.33;;;;;;;24.19;41.05;98445.63;5093133;28;20409;-49
2022/08/12 04:21:09;;;;;;;3.63;2.17;;;;;;;24.18;40.78;98458.22;5093104;28;20043;-49
2022/08/12 04:23:37;;;;;;;3.28;2.20;;;;;;;24.03;41.21;98463.88;5092889;28;20123;-49
2022/08/12 04:26:04;;;;;;;6.00;2.00;;;;;;;23.83;41.29;98454.28;5092965;28;20042;-50
2022/08/12 04:28:30;;;;;;;6.18;2.20;;;;;;;23.68;41.90;98456.09;5092960;28;20036;-49
2022/08/12 04:31:00;;;;;;;3.13;2.40;;;;;;;23.51;42.06;98450.44;5092955;28;20519;-49
2022/08/12 04:33:26;;;;;;;7.50;2.70;;;;;;;23.35;42.58;98455.25;5091582;28;20032;-50
2022/08/12 04:35:53;;;;;;;7.22;2.60;;;;;;;23.20;43.26;98453.59;5092744;28;20020;-49
2022/08/12 04:38:20;;;;;;;5.95;2.55;;;;;;;23.23;43.39;98447.63;5091425;28;20028;-49
2022/08/12 04:40:46;;;;;;;6.75;2.78;;;;;;;23.44;42.83;98456.19;5092756;28;20013;-49
2022/08/12 04:43:12;;;;;;;7.00;2.60;;;;;;;23.69;42.63;98451.53;5091393;28;20068;-49
2022/08/12 04:45:38;;;;;;;6.50;2.45;;;;;;;23.98;41.83;98445.97;5091351;28;20031;-49
2022/08/12 04:48:05;;;;;;;5.63;2.33;;;;;;;24.03;41.65;98439.75;5092666;28;20039;-50
2022/08/12 04:50:32;;;;;;;29.75;4.47;;;;;;;23.87;41.74;98442.69;5092586;28;20099;-49
2022/08/12 04:53:01;;;;;;;28.27;4.07;;;;;;;23.67;42.17;98438.41;5091237;28;20062;-47
2022/08/12 04:55:28;;;;;;;9.52;2.60;;;;;;;23.62;42.79;98441.16;5074205;28;20493;-49
2022/08/12 04:57:55;;;;;;;10.90;2.78;;;;;;;23.81;42.57;98440.38;5092446;28;20073;-48
2022/08/12 05:00:21;;;;;;;11.90;3.00;;;;;;;24.16;42.08;98438.16;5091087;28;20429;-48
2022/08/12 05:02:47;;;;;;;9.25;2.30;;;;;;;24.70;41.05;98433.94;5091076;28;20536;-47
2022/08/12 05:05:19;;;;;;;7.22;2.50;;;;;;;25.45;39.94;98427.22;5092556;28;20103;-49
2022/08/12 05:07:49;;;;;;;8.65;3.00;;;;;;;26.04;38.62;98429.09;5092322;28;20031;-49
2022/08/12 05:10:16;;;;;;;8.65;2.67;;;;;;;26.68;37.54;98434.91;5090960;28;20082;-49
2022/08/12 05:12:50;;;;;;;6.03;2.50;;;;;;;27.18;36.64;98438.31;5090954;28;20489;-49
2022/08/12 05:15:16;;;;;;;7.22;2.42;;;;;;;27.37;35.91;98441.50;5092120;28;20030;-49
2022/08/12 05:17:43;;;;;;;9.27;3.03;;;;;;;27.60;35.47;98446.72;5092201;28;20130;-49
2022/08/12 05:20:10;;;;;;;8.13;2.78;;;;;;;28.14;34.51;98435.56;5092143;28;20102;-49
2022/08/12 05:22:37;;;;;;;9.75;2.53;;;;;;;28.61;33.75;98430.91;5092138;28;20115;-49
2022/08/12 05:25:05;;;;;;;7.60;2.67;;;;;;;29.07;32.87;98436.50;5091816;28;20052;-48
2022/08/12 05:27:32;;;;;;;16.67;3.20;;;;;;;29.35;32.10;98441.44;5091930;28;20028;-47
2022/08/12 05:29:58;;;;;;;9.02;2.70;;;;;;;29.51;31.96;98437.00;5092016;28;20027;-48
2022/08/12 05:32:24;;;;;;;33.55;4.85;;;;;;;29.63;32.69;98438.97;5091553;28;20118;-47
2022/08/12 05:34:52;;;;;;;25.65;4.22;;;;;;;29.57;32.67;98443.00;5091843;28;20032;-49
2022/08/12 05:37:20;;;;;;;20.55;3.60;;;;;;;29.33;32.72;98446.38;5091915;28;20366;-50
2022/08/12 05:39:46;;;;;;;23.48;3.97;;;;;;;29.35;32.91;98453.03;5091917;28;20039;-50
2022/08/12 05:42:12;;;;;;;34.55;4.70;;;;;;;29.72;32.52;98450.53;5090551;28;20037;-48
2022/08/12 05:44:37;;;;;;;22.90;3.60;;;;;;;30.30;31.62;98445.13;5090547;28;20028;-47
2022/08/12 05:47:04;;;;;;;21.92;4.28;;;;;;;31.01;30.54;98445.81;5091836;28;20132;-47
2022/08/12 05:49:29;;;;;;;26.15;4.75;;;;;;;31.63;29.66;98451.84;5073692;28;20028;-48
2022/08/12 05:51:56;;;;;;;28.17;4.70;;;;;;;32.09;28.83;98448.81;5091715;28;20069;-47
2022/08/12 05:54:22;;;;;;;37.15;5.63;;;;;;;32.25;28.73;98455.03;5091636;28;20059;-48
2022/08/12 05:56:47;;;;;;;31.02;4.63;;;;;;;32.81;27.96;98449.41;5091771;28;20055;-47
2022/08/12 05:59:13;;;;;;;39.05;4.88;;;;;;;33.44;26.79;98444.91;5091668;28;20477;-47
2022/08/12 06:01:41;;;;;;;64.25;5.82;;;;;;;34.13;26.80;98442.31;5091709;28;20201;-47
2022/08/12 06:04:08;;;;;;;72.85;6.90;;;;;;;34.61;25.99;98445.44;5091618;28;20478;-48
2022/08/12 06:06:40;;;;;;;63.95;7.03;;;;;;;34.84;25.27;98449.28;5091653;28;20029;-47
2022/08/12 06:09:09;;;;;;;57.72;6.60;;;;;;;34.14;26.40;98452.06;5090356;28;20032;-48
2022/08/12 06:11:36;;;;;;;89.32;9.38;;;;;;;34.07;26.73;98451.94;5091613;28;20016;-48
2022/08/12 06:14:01;;;;;;;63.78;7.25;;;;;;;34.59;25.81;98452.38;5091559;28;20028;-49
2022/08/12 06:16:27;;;;;;;71.40;8.73;;;;;;;35.16;25.04;98449.75;5091578;28;20073;-49
2022/08/12 06:18:53;;;;;;;76.30;9.43;;;;;;;35.35;25.34;98443.34;5091619;28;20036;-49
2022/08/12 06:21:22;;;;;;;105.40;8.15;;;;;;;36.38;23.81;98445.56;5091785;28;20028;-50
2022/08/12 06:23:48;;;;;;;83.75;10.02;;;;;;;36.83;23.39;98443.56;5091221;28;20050;-50
2022/08/12 06:26:15;;;;;;;65.70;8.00;;;;;;;37.15;22.81;98441.00;5091414;28;20107;-50
2022/08/12 06:28:42;;;;;;;54.65;6.47;;;;;;;36.84;23.16;98439.63;5091420;28;20020;-50
2022/08/12 06:31:14;;;;;;;27.92;5.72;;;;;;;37.40;22.63;98440.31;5091420;28;20111;-51
2022/08/12 06:33:43;;;;;;;44.35;6.90;;;;;;;37.38;22.23;98439.91;5091383;28;20020;-50
2022/08/12 06:36:14;;;;;;;48.42;7.75;;;;;;;36.57;23.37;98431.63;5091228;28;20097;-50
2022/08/12 06:38:41;;;;;;;35.28;5.88;;;;;;;36.56;23.67;98437.47;5091640;28;20030;-49
2022/08/12 06:43:52;;;;;;;59.33;6.97;;;;;;;37.59;22.21;98431.00;5092720;28;20032;-49
2022/08/12 06:46:22;;;;;;;27.52;4.80;;;;;;;37.64;22.42;98427.09;5094936;28;20028;-49
2022/08/12 06:48:50;;;;;;;112.53;12.75;;;;;;;37.69;22.39;98429.44;5094927;28;20138;-48
2022/08/12 06:51:19;;;;;;;30.95;5.03;;;;;;;37.78;22.32;98432.59;5095055;28;20062;-48
2022/08/12 06:53:45;;;;;;;28.30;5.72;;;;;;;38.42;21.45;98423.63;5094852;28;20027;-49
2022/08/12 06:56:11;;;;;;;29.27;4.65;;;;;;;38.26;21.95;98423.25;5076609;28;20032;-50
2022/08/12 06:58:37;;;;;;;23.25;4.45;;;;;;;37.63;22.88;98428.25;5094742;28;20024;-50
2022/08/12 07:01:03;;;;;;;28.02;4.28;;;;;;;37.80;22.86;98430.25;5094637;28;20028;-50
2022/08/12 07:03:29;;;;;;;17.10;3.60;;;;;;;38.30;22.17;98438.53;5094713;28;20027;-50
2022/08/12 07:05:58;;;;;;;17.20;3.92;;;;;;;38.64;22.04;98434.59;5093292;28;20413;-50
2022/08/12 07:08:27;;;;;;;19.58;4.50;;;;;;;38.93;21.45;98436.06;5094503;28;20035;-49
2022/08/12 07:10:58;;;;;;;30.10;4.45;;;;;;;39.00;21.67;98429.03;5094429;28;20032;-49
2022/08/12 07:13:26;;;;;;;24.77;4.32;;;;;;;39.00;22.17;98432.56;5093229;28;20028;-48
2022/08/12 07:15:54;;;;;;;23.65;4.30;;;;;;;38.73;22.32;98438.47;5094337;28;20470;-49
2022/08/12 07:18:20;;;;;;;31.67;4.53;;;;;;;38.52;23.14;98433.84;5094568;28;20519;-48
2022/08/12 07:20:47;;;;;;;32.40;5.30;;;;;;;38.32;23.38;98436.16;5094277;28;20127;-48
2022/08/12 07:23:15;;;;;;;19.60;3.60;;;;;;;38.78;23.02;98436.50;5094074;28;20545;-49
2022/08/12 07:25:42;;;;;;;27.63;5.15;;;;;;;38.76;23.54;98431.44;5094324;28;20036;-48
2022/08/12 07:28:17;;;;;;;20.17;4.30;;;;;;;39.17;22.97;98432.91;5092885;28;20020;-48
2022/08/12 07:30:47;;;;;;;14.13;3.30;;;;;;;40.09;21.82;98431.59;5094124;28;20080;-48
2022/08/12 07:33:15;;;;;;;12.13;3.42;;;;;;;41.11;20.71;98432.16;5094358;28;20425;-49
2022/08/12 07:35:46;;;;;;;17.15;3.55;;;;;;;41.99;20.17;98433.34;5093866;28;20024;-48
2022/08/12 07:38:34;;;;;;;12.32;3.15;;;;;;;42.28;20.08;98420.66;5094006;28;20064;-48
2022/08/12 07:41:09;;;;;;;15.57;3.75;;;;;;;42.14;20.38;98426.44;5093939;28;20028;-48
2022/08/12 07:43:38;;;;;;;8.13;3.05;;;;;;;42.00;20.31;98421.09;5093921;28;20031;-51
2022/08/12 07:46:05;;;;;;;9.77;2.80;;;;;;;42.04;20.51;98424.63;5092467;28;20032;-50
2022/08/12 07:48:37;;;;;;;4.10;2.28;;;;;;;43.08;19.69;98418.00;5093852;28;20024;-51
2022/08/12 07:51:03;;;;;;;9.70;2.78;;;;;;;44.24;18.22;98419.72;5093728;28;20036;-51
2022/08/12 07:53:29;;;;;;;16.65;3.22;;;;;;;43.73;18.82;98419.38;5075707;28;20030;-50
2022/08/12 07:55:55;;;;;;;5.82;2.38;;;;;;;43.55;19.05;98418.97;5093175;28;20386;-50
2022/08/12 07:58:25;;;;;;;21.70;4.07;;;;;;;43.64;18.60;98422.69;5093521;28;20032;-50
2022/08/12 08:00:56;;;;;;;37.90;4.70;;;;;;;43.52;18.98;98419.84;5093557;28;20031;-50
2022/08/12 08:03:24;;;;;;;23.75;3.03;;;;;;;43.69;18.89;98418.69;5093525;28;20078;-51
2022/08/12 08:05:51;;;;;;;7.55;2.58;;;;;;;44.10;18.71;98408.25;5092289;28;20020;-50
2022/08/12 08:08:20;;;;;;;17.52;3.38;;;;;;;44.56;17.90;98409.03;5093704;28;20389;-50
2022/08/12 08:10:47;;;;;;;18.10;3.92;;;;;;;44.88;17.80;98412.91;5092058;28;20028;-51
2022/08/12 08:13:14;;;;;;;9.40;2.65;;;;;;;44.92;17.35;98416.38;5093292;28;20031;-51
2022/08/12 08:15:40;;;;;;;6.43;2.10;;;;;;;44.76;17.65;98411.66;5091924;28;20110;-51
2022/08/12 08:18:09;;;;;;;60.70;7.47;;;;;;;44.69;17.63;98409.06;5093212;28;20081;-51
2022/08/12 08:20:41;;;;;;;40.78;5.15;;;;;;;43.93;18.21;98410.19;5093138;28;20024;-51
2022/08/12 08:23:17;;;;;;;14.50;3.67;;;;;;;43.84;18.38;98408.81;5092833;28;20056;-52
2022/08/12 08:25:44;;;;;;;8.05;2.90;;;;;;;43.57;18.81;98402.75;5091754;28;20131;-52
2022/08/12 08:28:12;;;;;;;15.98;3.08;;;;;;;43.19;18.97;98405.94;5091684;28;20077;-51
2022/08/12 08:30:42;;;;;;;11.32;3.20;;;;;;;43.07;19.24;98408.16;5092947;28;20027;-52
2022/08/12 08:33:10;;;;;;;27.50;4.20;;;;;;;42.66;19.38;98414.06;5092876;28;20058;-51
2022/08/12 08:35:38;;;;;;;9.20;2.92;;;;;;;42.73;19.53;98404.91;5092719;28;20119;-51
2022/08/12 08:38:13;;;;;;;10.10;2.75;;;;;;;43.09;19.59;98402.22;5092821;28;20508;-50
2022/08/12 08:43:26;;;;;;;7.60;2.40;;;;;;;43.52;18.58;98395.75;5093070;28;20073;-52
2022/08/12 08:45:55;;;;;;;6.80;2.47;;;;;;;43.68;18.18;98403.31;5092684;28;20038;-52
2022/08/12 08:48:21;;;;;;;20.33;4.30;;;;;;;43.90;18.27;98400.78;5091408;28;20027;-51
2022/08/12 08:50:47;;;;;;;12.07;2.90;;;;;;;44.32;17.77;98397.41;5092618;28;20103;-50
2022/08/12 08:53:12;;;;;;;4.28;2.17;;;;;;;44.58;17.01;98404.59;5091228;28;20016;-51
2022/08/12 08:55:39;;;;;;;7.13;1.95;;;;;;;44.91;16.67;98404.50;5091085;28;20035;-51
2022/08/12 08:58:07;;;;;;;20.25;3.10;;;;;;;45.59;16.28;98399.69;5092500;28;20052;-51
2022/08/12 09:00:36;;;;;;;12.05;2.85;;;;;;;46.33;15.18;98397.69;5092370;28;20031;-51
2022/08/12 09:03:03;;;;;;;15.60;3.03;;;;;;;46.19;15.25;98392.63;5092377;28;20102;-52
2022/08/12 09:05:29;;;;;;;24.50;4.53;;;;;;;46.16;15.67;98402.63;5092345;28;20020;-53
2022/08/12 09:07:58;;;;;;;11.75;3.13;;;;;;;45.99;15.06;98395.66;5091727;28;20017;-49
2022/08/12 09:10:24;;;;;;;30.77;3.97;;;;;;;46.05;15.13;98393.91;5092278;28;20584;-52
2022/08/12 09:15:37;;;;;;;7.18;2.00;;;;;;;45.93;14.32;98389.13;5092300;28;20081;-52
2022/08/12 09:18:06;;;;;;;8.30;2.50;;;;;;;46.75;13.89;98388.28;5092145;28;20020;-52
2022/08/12 09:20:34;;;;;;;22.67;5.85;;;;;;;47.16;13.44;98376.00;5074198;28;20038;-52
2022/08/12 09:23:01;;;;;;;14.25;3.80;;;;;;;46.55;14.21;98377.53;5090526;28;20027;-51
2022/08/12 09:25:34;;;;;;;3.80;2.10;;;;;;;46.07;14.23;98379.59;5092032;28;20052;-51
2022/08/12 09:28:01;;;;;;;13.75;3.33;;;;;;;46.33;14.14;98380.25;5092332;28;20405;-50
2022/08/12 09:30:29;;;;;;;9.18;2.70;;;;;;;46.34;14.14;98385.34;5090812;28;20020;-51
2022/08/12 09:32:55;;;;;;;5.50;2.83;;;;;;;46.59;13.77;98372.63;5092074;28;20073;-51
2022/08/12 09:35:24;;;;;;;11.50;2.70;;;;;;;46.77;13.51;98366.41;5090633;28;20032;-52
2022/08/12 09:37:53;;;;;;;12.13;3.42;;;;;;;46.88;13.69;98368.78;5091944;28;20502;-52
2022/08/12 09:40:19;;;;;;;9.02;2.42;;;;;;;46.69;13.51;98365.88;5092122;28;20024;-52
2022/08/12 09:45:32;;;;;;;7.13;2.17;;;;;;;46.66;14.15;98363.22;5091890;28;20038;-52
2022/08/12 09:48:02;;;;;;;7.22;2.25;;;;;;;46.61;14.07;98365.38;5091784;28;20032;-52
2022/08/12 09:50:30;;;;;;;13.52;2.95;;;;;;;46.61;13.83;98367.38;5091841;28;20082;-52
2022/08/12 09:53:12;;;;;;;2.90;1.80;;;;;;;47.40;12.72;98358.84;5091832;28;20048;-53
2022/08/12 09:55:48;;;;;;;4.78;1.90;;;;;;;47.69;12.84;98354.91;5091914;28;20024;-53
2022/08/12 09:58:15;;;;;;;15.98;3.10;;;;;;;47.59;12.87;98351.34;5090516;28;20032;-53
2022/08/12 10:00:45;;;;;;;4.20;2.72;;;;;;;47.27;13.15;98349.81;5091688;28;20035;-52
2022/08/12 10:03:13;;;;;;;6.47;2.28;;;;;;;47.12;12.86;98350.38;5091684;28;20028;-51
2022/08/12 10:05:45;;;;;;;22.58;3.58;;;;;;;47.30;13.59;98340.59;5091674;28;20498;-51
2022/08/12 10:08:14;;;;;;;5.30;2.30;;;;;;;48.21;12.59;98344.75;5091730;28;20021;-51
2022/08/12 10:13:40;;;;;;;12.10;2.70;;;;;;;48.65;12.89;98336.06;5091674;28;20097;-51
2022/08/12 10:16:10;;;;;;;9.07;2.20;;;;;;;48.19;12.74;98338.88;5090170;28;20028;-52
2022/08/12 10:18:41;;;;;;;11.65;2.95;;;;;;;47.51;13.36;98336.16;5094234;28;20028;-52
2022/08/12 10:21:20;;;;;;;17.70;3.92;;;;;;;46.94;13.81;98333.63;5094512;28;20032;-51
2022/08/12 10:23:48;;;;;;;13.85;2.83;;;;;;;47.05;13.67;98338.75;5095268;28;20036;-52
2022/08/12 10:31:45;;;;;;;14.73;2.83;;;;;;;47.07;13.87;98323.19;5095575;28;20078;-52
2022/08/12 10:34:14;;;;;;;11.77;3.38;;;;;;;47.18;13.28;98318.00;5095122;28;20056;-52
2022/08/12 10:36:42;;;;;;;6.13;2.03;;;;;;;46.94;13.58;98322.50;5095190;28;20024;-51
2022/08/12 10:39:12;;;;;;;8.27;2.40;;;;;;;47.08;13.49;98319.16;5095149;28;20024;-51
2022/08/12 10:44:22;;;;;;;7.90;2.00;;;;;;;46.80;13.58;98318.28;5095405;28;20528;-53
2022/08/12 10:46:51;;;;;;;14.50;2.05;;;;;;;46.71;13.50;98313.44;5093689;28;20024;-52
2022/08/12 10:49:18;;;;;;;6.82;2.33;;;;;;;46.92;13.05;98313.88;5094903;28;20063;-53
2022/08/12 10:51:47;;;;;;;2.78;1.60;;;;;;;46.82;12.69;98316.59;5093549;28;20032;-52
2022/08/12 10:54:15;;;;;;;2.83;1.85;;;;;;;46.44;12.82;98312.03;5094881;28;20024;-51
2022/08/12 10:56:48;;;;;;;9.55;2.15;;;;;;;46.47;12.77;98304.81;5095108;28;20389;-52
2022/08/12 10:59:20;;;;;;;;;;;;;;;47.03;12.91;98301.09;5095229;28;20036;-52
2022/08/12 11:01:47;;;;;;;6.60;2.30;;;;;;;47.14;11.93;98297.13;5094968;28;19908;-52
2022/08/12 11:04:13;;;;;;;5.32;1.75;;;;;;;47.06;12.18;98291.06;5094720;28;20042;-50
2022/08/12 11:07:02;;;;;;;2.83;1.85;;;;;;;47.01;12.29;98286.91;5093387;28;20024;-51
2022/08/12 11:09:31;;;;;;;10.02;2.10;;;;;;;46.60;12.49;98280.50;5094373;28;20510;-51
2022/08/12 11:12:05;;;;;;;5.13;1.75;;;;;;;46.52;12.07;98292.34;5093337;28;20185;-51
2022/08/12 11:14:33;;;;;;;10.70;2.13;;;;;;;46.49;12.63;98288.47;5094799;28;20071;-51
2022/08/12 11:17:01;;;;;;;8.38;2.10;;;;;;;46.58;12.69;98284.97;5094343;28;20153;-52
2022/08/12 11:19:28;;;;;;;21.98;3.00;;;;;;;46.62;12.32;98282.84;5094442;28;20490;-52
2022/08/12 11:21:55;;;;;;;10.05;2.50;;;;;;;46.82;12.40;98272.16;5092994;28;20494;-50
2022/08/12 11:24:22;;;;;;;9.18;2.95;;;;;;;47.06;12.70;98271.63;5094073;28;20085;-51
2022/08/12 11:26:48;;;;;;;5.30;1.85;;;;;;;47.45;12.16;98260.91;5092933;28;20495;-51
2022/08/12 11:29:15;;;;;;;11.07;2.72;;;;;;;47.46;12.03;98256.16;5092187;28;20035;-52
2022/08/12 11:31:42;;;;;;;5.25;2.25;;;;;;;47.33;12.35;98265.41;5094117;28;20034;-51
2022/08/12 11:34:08;;;;;;;14.85;3.50;;;;;;;47.33;12.72;98254.28;5094092;28;20028;-50
2022/08/12 11:36:33;;;;;;;9.38;2.00;;;;;;;47.10;12.34;98260.38;5094286;28;20032;-49
2022/08/12 11:38:59;;;;;;;3.75;2.00;;;;;;;46.76;12.54;98260.06;5094054;28;20099;-50
2022/08/12 11:41:25;;;;;;;15.50;2.65;;;;;;;46.12;13.03;98254.91;5093988;28;20409;-52
2022/08/12 11:43:51;;;;;;;6.68;2.03;;;;;;;46.12;11.93;98252.13;5093906;28;20024;-51
2022/08/12 11:46:20;;;;;;;12.48;2.08;;;;;;;46.23;11.48;98255.28;5093870;28;20052;-51
2022/08/12 11:48:45;;;;;;;15.73;2.45;;;;;;;45.96;11.93;98252.31;5093794;28;20502;-51
2022/08/12 11:51:11;;;;;;;12.88;2.92;;;;;;;46.31;11.77;98252.28;5093799;28;20027;-51
2022/08/12 11:53:37;;;;;;;17.02;2.28;;;;;;;46.38;10.92;98254.75;5092508;28;20027;-52
2022/08/12 11:56:05;;;;;;;8.85;2.15;;;;;;;46.57;10.67;98239.00;5093560;28;20432;-50
2022/08/12 11:58:34;;;;;;;16.30;2.40;;;;;;;46.26;10.72;98241.75;5093584;28;20024;-51
2022/08/12 12:01:00;;;;;;;13.52;2.65;;;;;;;46.10;10.81;98240.72;5093607;28;20028;-51
2022/08/12 12:03:25;;;;;;;17.13;2.60;;;;;;;46.13;10.64;98236.28;5093790;28;20097;-52
2022/08/12 12:05:51;;;;;;;27.73;3.65;;;;;;;45.69;11.39;98230.69;5093411;28;20120;-52
2022/08/12 12:08:24;;;;;;;19.05;7.50;;;;;;;45.71;11.07;98231.78;5093471;28;20066;-52
2022/08/12 12:10:51;;;;;;;14.93;2.38;;;;;;;45.99;10.59;98237.53;5092058;28;20063;-52
2022/08/12 12:13:18;;;;;;;13.10;2.20;;;;;;;45.87;10.60;98238.38;5093350;28;20069;-52
2022/08/12 12:15:44;;;;;;;10.18;2.03;;;;;;;45.94;10.48;98235.34;5093182;28;20060;-51
2022/08/12 12:18:25;;;;;;;12.25;2.03;;;;;;;45.82;10.72;98225.84;5093244;28;20381;-52
2022/08/12 12:20:52;;;;;;;13.65;2.40;;;;;;;45.48;10.63;98226.63;5091821;28;20020;-51
2022/08/12 12:23:18;;;;;;;12.82;2.30;;;;;;;45.30;10.99;98225.25;5091417;28;20098;-50
2022/08/12 12:25:45;;;;;;;16.00;3.40;;;;;;;45.16;10.63;98214.59;5091761;28;20058;-51
2022/08/12 12:28:14;;;;;;;22.48;2.75;;;;;;;45.14;9.75;98214.25;5091767;28;20032;-50
2022/08/12 12:30:40;;;;;;;14.35;2.28;;;;;;;44.84;9.57;98217.16;5091777;28;20046;-51
2022/08/12 12:33:08;;;;;;;12.52;2.28;;;;;;;44.87;9.71;98218.28;5091664;28;20035;-50
2022/08/12 12:35:35;;;;;;;36.38;3.60;;;;;;;45.04;8.93;98216.19;5091479;28;20020;-51
2022/08/12 12:38:09;;;;;;;46.72;4.82;;;;;;;45.09;8.84;98210.06;5092732;28;20082;-51
2022/08/12 12:40:36;;;;;;;32.15;3.72;;;;;;;45.17;8.27;98210.59;5092381;28;20032;-51
2022/08/12 12:43:03;;;;;;;19.92;2.50;;;;;;;45.35;8.10;98212.81;5092249;28;20023;-51
2022/08/12 12:45:30;;;;;;;24.17;2.25;;;;;;;45.06;8.21;98208.97;5092726;28;20024;-52
2022/08/12 12:48:01;;;;;;;56.58;4.63;;;;;;;44.62;8.05;98211.50;5093011;28;20444;-52
2022/08/12 12:50:32;;;;;;;17.23;2.72;;;;;;;44.33;8.29;98208.03;5092625;28;20023;-52
2022/08/12 12:52:58;;;;;;;10.57;1.90;;;;;;;44.37;9.18;98211.47;5092874;28;20370;-52
2022/08/12 12:55:26;;;;;;;10.45;2.38;;;;;;;44.25;9.51;98213.78;5092452;28;20081;-53
2022/08/12 12:57:52;;;;;;;25.63;3.30;;;;;;;44.14;10.08;98205.00;5092531;28;20370;-51
2022/08/12 13:00:20;;;;;;;19.00;3.08;;;;;;;44.04;10.18;98190.22;5092490;28;20012;-52
2022/08/12 13:02:52;;;;;;;21.27;3.10;;;;;;;44.14;9.90;98202.25;5092416;28;20059;-52
2022/08/12 13:05:24;;;;;;;27.83;4.72;;;;;;;43.80;10.76;98208.31;5092494;28;20489;-51
2022/08/12 13:07:51;;;;;;;;;;;;;;;43.47;11.14;98209.13;5092777;28;20024;-52
2022/08/12 13:10:17;;;;;;;44.88;9.55;;;;;;;43.01;11.75;98204.75;5092320;28;19914;-52
2022/08/12 13:12:42;;;;;;;26.05;3.63;;;;;;;42.60;11.41;98197.75;5092252;28;20401;-52
2022/08/12 13:15:14;;;;;;;16.50;2.20;;;;;;;42.53;10.92;98190.44;5092119;28;20123;-51
2022/08/12 13:17:54;;;;;;;16.08;2.53;;;;;;;42.27;11.17;98194.91;5092765;28;20028;-51
2022/08/12 13:20:20;;;;;;;16.73;1.92;;;;;;;42.01;11.74;98191.84;5092226;28;20110;-51
2022/08/12 13:22:46;;;;;;;9.82;2.22;;;;;;;41.97;11.97;98182.09;5092144;28;20044;-52